• Join FlightAware (Why Join?)
  • Login
  • US Flag 
09:19AM EDT


 

Airport Tracker/Info


-or-


 

Live Flight TrackerFlight Track Log ✈ GES31 ✈ 16-Jul-2013 ✈ KTEB - LEMD / MAD

Flight Track Log - Related Links

Times and Time Zones

All times are in EDT time to prevent confusion due to time zone crossing. See the GES31 flight status page for this flight to view local times or setup timezone preferences in your user account.

Time Position Orientation Groundspeed Altitude Reporting Facility
EDT Latitude Longitude Course Direction KTS MPH feet Rate Location/Type
04:22PM 40.8667 -74.0500 360° North 147 169 1,800  Level New York TRACON
04:23PM 40.9167 -74.0500 360° North 219 252 2,600 1,380 Climbing New York TRACON
04:24PM 40.9333 -74.1167 288° West 223 257 4,600 1,680 Climbing New York TRACON
04:25PM 40.9667 -74.2000 298° West 250 288 6,000 660 Climbing New York TRACON
04:26PM 41.0167 -74.2333 333° Northwest 267 307 6,000 120 Level New York TRACON
04:27PM 41.0833 -74.1833 29° Northeast 264 304 6,300 1,800 Climbing New York TRACON
04:28PM 41.1333 -74.1167 45° Northeast 272 313 9,700 2,580 Climbing New York TRACON
04:30PM 41.1950 -73.8800 71° East 373 429 14,100 2,100 Climbing Boston Center
04:31PM 41.2300 -73.7511 70° East 373 429 16,100 2,040 Climbing Boston Center
04:32PM 41.2647 -73.6081 72° East 383 441 18,200 1,500 Climbing Boston Center
04:33PM 41.2972 -73.4844 71° East 388 447 19,200 1,560 Climbing Boston Center
04:34PM 41.3319 -73.3414 72° East 393 452 21,400 2,040 Climbing Boston Center
04:35PM 41.3725 -73.1869 71° East 413 475 23,300 1,740 Climbing Boston Center
04:36PM 41.4442 -73.0603 53° Northeast 420 483 24,900 1,740 Climbing Boston Center
04:37PM 41.5136 -72.9225 56° Northeast 432 497 26,800 1,800 Climbing Boston Center
04:38PM 41.5664 -72.7425 69° East 445 512 28,600 1,680 Climbing Boston Center
04:39PM 41.6167 -72.5789 68° East 464 534 30,200 1,920 Climbing Boston Center
04:40PM 41.6667 -72.4067 69° East 485 558 32,500 2,100 Climbing Boston Center
04:41PM 41.7186 -72.2397 67° East 485 558 34,400 2,040 Climbing Boston Center
04:42PM 41.7683 -72.0756 68° East 485 558 36,600 1,860 Climbing Boston Center
04:44PM 41.8156 -71.9136 69° East 475 547 38,500 1,380 Climbing Boston Center
04:45PM 41.8708 -71.7208 69° East 469 540 39,700 1,140 Climbing Boston Center
04:46PM 41.9197 -71.5583 68° East 469 540 40,800 600 Climbing Boston Center
04:47PM 41.9706 -71.3986 67° East 469 540 41,000 60 Climbing Boston Center
04:48PM 42.0208 -71.2272 68° East 474 545 41,000  Level Boston Center
04:49PM 42.0689 -71.0586 69° East 479 551 41,000  Level Boston Center
04:50PM 42.1189 -70.8894 68° East 479 551 41,000  Level Boston Center
04:51PM 42.1603 -70.7317 70° East 486 559 41,000  Level Boston Center
04:52PM 42.2175 -70.5225 70° East 492 566 41,000  Level Boston Center
04:53PM 42.2686 -70.3528 68° East 492 566 41,000  Level Boston Center
04:54PM 42.3153 -70.1769 70° East 492 566 41,000  Level Boston Center
04:55PM 42.3714 -69.9725 70° East 492 566 41,000  Level Boston Center
04:56PM 42.4292 -69.7622 70° East 492 566 41,000  Level Boston Center
04:57PM 42.4750 -69.5883 70° East 492 566 41,000  Level Boston Center
04:58PM 42.5247 -69.4142 69° East 492 566 41,000  Level Boston Center
04:59PM 42.5778 -69.2172 70° East 497 572 41,000  Level Boston Center
05:00PM 42.6247 -69.0425 70° East 491 565 41,000  Level Boston Center
05:01PM 42.6694 -68.8678 71° East 491 565 41,000  Level Boston Center
05:02PM 42.7178 -68.6867 70° East 491 565 41,000  Level Boston Center
05:03PM 42.7333 -68.5833 78° East 500 575 41,000  Level Moncton Center
05:04PM 42.7833 -68.3500 74° East 500 575 41,000  Level Moncton Center
05:05PM 42.8333 -68.1833 68° East 500 575 41,000  Level Moncton Center
05:06PM 42.8667 -68.0000 76° East 500 575 41,000  Level Moncton Center
05:07PM 42.9167 -67.8167 70° East 500 575 41,000  Level Moncton Center
05:08PM 42.9667 -67.6333 70° East 500 575 41,000  Level Moncton Center
05:09PM 43.0000 -67.4500 76° East 510 587 41,000  Level Moncton Center
05:10PM 43.0667 -67.2833 61° Northeast 510 587 41,000  Level Moncton Center
05:11PM 43.1000 -67.1000 76° East 510 587 41,000  Level Moncton Center
05:12PM 43.1333 -66.9167 76° East 510 587 41,000  Level Moncton Center
05:13PM 43.2000 -66.7167 65° Northeast 510 587 41,000  Level Moncton Center
05:14PM 43.2333 -66.5500 75° East 510 587 41,000  Level Moncton Center
05:15PM 43.2833 -66.3500 71° East 510 587 41,000  Level Moncton Center
05:16PM 43.3167 -66.1667 76° East 510 587 41,000  Level Moncton Center
05:17PM 43.3500 -66.0000 75° East 510 587 41,000  Level Moncton Center
05:18PM 43.4167 -65.8000 65° Northeast 510 587 41,000  Level Moncton Center
05:19PM 43.4500 -65.6167 76° East 510 587 41,000  Level Moncton Center
05:20PM 43.5000 -65.4333 69° East 520 598 41,000  Level Moncton Center
05:21PM 43.5333 -65.2500 76° East 520 598 41,000  Level Moncton Center
05:22PM 43.5833 -65.0500 71° East 520 598 41,000  Level Moncton Center
05:23PM 43.6167 -64.8667 76° East 510 587 41,000  Level Moncton Center
05:24PM 43.6667 -64.6667 71° East 520 598 41,000  Level Moncton Center
05:25PM 43.7000 -64.4667 77° East 520 598 41,000  Level Moncton Center
05:26PM 43.7500 -64.2833 69° East 520 598 41,000  Level Moncton Center
05:27PM 43.7833 -64.1000 76° East 520 598 41,000  Level Moncton Center
05:28PM 43.8333 -63.8833 72° East 520 598 41,000  Level Moncton Center
05:29PM 43.8667 -63.7000 76° East 520 598 41,000  Level Moncton Center
05:30PM 43.9000 -63.5167 76° East 520 598 41,000  Level Moncton Center
05:31PM 43.9500 -63.3000 72° East 530 610 41,000  Level Moncton Center
05:32PM 43.9833 -63.1167 76° East 530 610 41,000  Level Moncton Center
05:33PM 44.0333 -62.9333 69° East 530 610 41,000  Level Moncton Center
05:34PM 44.0500 -62.7167 84° East 530 610 41,000  Level Moncton Center
05:35PM 44.1000 -62.5333 69° East 530 610 41,000  Level Moncton Center
05:36PM 44.1500 -62.3167 72° East 530 610 41,000  Level Moncton Center
05:37PM 44.1833 -62.1333 76° East 530 610 41,000  Level Moncton Center
05:38PM 44.2333 -61.9167 72° East 530 610 41,000  Level Moncton Center
05:39PM 44.2500 -61.7333 83° East 540 621 41,000  Level Moncton Center
05:40PM 44.3000 -61.5167 72° East 540 621 41,000  Level Moncton Center
05:41PM 44.3333 -61.3333 76° East 540 621 41,000  Level Moncton Center
05:42PM 44.3667 -61.1167 78° East 540 621 41,000  Level Moncton Center
05:43PM 44.4167 -60.9167 71° East 540 621 41,000  Level Moncton Center
05:44PM 44.4500 -60.7167 77° East 540 621 41,000  Level Moncton Center
05:45PM 44.4833 -60.5000 78° East 550 633 41,000  Level Moncton Center
05:46PM 44.5167 -60.3000 77° East 550 633 41,000  Level Moncton Center
05:47PM 44.5500 -60.0833 78° East 550 633 41,000  Level Moncton Center
05:48PM 44.6000 -59.8833 71° East 550 633 41,000  Level Moncton Center
05:49PM 44.6333 -59.6500 79° East 550 633 41,000  Level Gander Center
05:50PM 44.6667 -59.4667 76° East 550 633 41,000  Level Moncton Center
05:51PM 44.7000 -59.2500 78° East 550 633 41,000  Level Moncton Center
05:52PM 44.7333 -59.0333 78° East 560 644 41,000  Level Moncton Center
05:53PM 44.7667 -58.8167 78° East 560 644 41,000  Level Moncton Center
05:54PM 44.8000 -58.6000 78° East 560 644 41,000  Level Moncton Center
05:55PM 44.8500 -58.3833 72° East 560 644 41,000  Level Moncton Center
05:56PM 44.8667 -58.1667 84° East 560 644 41,000  Level Moncton Center
05:57PM 44.9000 -57.9500 78° East 560 644 41,000  Level Moncton Center
05:58PM 44.9333 -57.7333 78° East 560 644 41,000  Level Moncton Center
05:59PM 44.9667 -57.5333 77° East 560 644 41,000  Level Moncton Center
06:00PM 45.0000 -57.3000 78° East 560 644 41,000  Level Moncton Center
06:01PM 45.0333 -57.1000 77° East 570 656 41,000  Level Moncton Center
06:02PM 45.0667 -56.8667 78° East 570 656 41,000  Level Moncton Center
06:03PM 45.0833 -56.6500 84° East 570 656 41,000  Level Moncton Center
06:04PM 45.1167 -56.4167 78° East 570 656 41,000  Level Moncton Center
06:05PM 45.1500 -56.2000 78° East 570 656 41,000  Level Moncton Center
06:06PM 45.1833 -55.9833 78° East 570 656 41,000 120 Level Moncton Center
06:07PM 45.2167 -55.7667 78° East 560 644 41,300 300 Climbing Moncton Center
06:08PM 45.2500 -55.5667 77° East 570 656 41,600 300 Climbing Moncton Center
06:09PM 45.2833 -55.3333 78° East 560 644 41,900 300 Climbing Moncton Center
06:10PM 45.3167 -55.1333 77° East 560 644 42,200 300 Climbing Moncton Center
06:11PM 45.3500 -54.9167 78° East 560 644 42,500 300 Climbing Moncton Center
06:12PM 45.3833 -54.6833 78° East 560 644 42,800 240 Climbing Moncton Center
06:13PM 45.4167 -54.5000 75° East 550 633 43,000 60 Climbing Moncton Center
06:14PM 45.4500 -54.2667 78° East 550 633 43,000  Level Moncton Center
06:15PM 45.4833 -54.0500 78° East 550 633 43,000  Level Moncton Center
06:16PM 45.5000 -53.8333 84° East 550 633 43,000  Level Moncton Center
06:17PM 45.5333 -53.6333 77° East 560 644 43,000  Level Moncton Center
06:18PM 45.5667 -53.3833 79° East 550 633 43,000  Level Moncton Center
06:19PM 45.6000 -53.1833 77° East 550 633 43,000  Level Moncton Center
06:20PM 45.6333 -52.9833 77° East 550 633 43,000  Level Moncton Center
06:21PM 45.6500 -52.7667 84° East 550 633 43,000  Level Moncton Center
06:22PM 45.6833 -52.5333 78° East 560 644 43,000  Level Moncton Center
06:23PM 45.7000 -52.3167 84° East 560 644 43,000  Level Moncton Center
06:24PM 45.7333 -52.1167 77° East 560 644 43,000  Level Moncton Center
06:25PM 45.7667 -51.8667 79° East 560 644 43,000  Level Moncton Center
06:26PM 45.7833 -51.6667 83° East 550 633 43,000  Level Moncton Center
06:27PM 45.8167 -51.4667 76° East 560 644 43,000  Level Moncton Center
06:28PM 45.8333 -51.2167 84° East 550 633 43,000  Level Moncton Center
06:29PM 45.8667 -51.0167 76° East 560 644 43,000  Level Moncton Center
06:30PM 45.8833 -50.7833 84° East 550 633 43,000  Level Gander Center
06:31PM 45.9167 -50.5333 79° East 560 644 43,000  Level Gander Center
06:32PM 45.9500 -50.3500 75° East 550 633 43,000  Level Gander Center
06:33PM 46.0000 -50.0000 78° East 543 625 43,000  Level ETMS Enhanced Traffic Management System
06:34PM 45.9833 -49.9000 78° East 560 644 43,000  Level Gander Center
06:35PM 46.0167 -49.6833 77° East 560 644 43,000  Level Gander Center
06:36PM 46.0500 -49.4667 77° East 560 644 43,000  Level Gander Center
06:37PM 46.0833 -49.2500 77° East 550 633 43,000  Level Gander Center
06:38PM 46.1167 -49.0167 78° East 550 633 43,000  Level Gander Center
06:39PM 46.1333 -48.8167 83° East 560 644 43,000  Level Gander Center
06:40PM 46.1667 -48.6000 77° East 560 644 43,000  Level Gander Center
06:41PM 46.1833 -48.3667 84° East 550 633 43,000  Level Gander Center
06:42PM 46.2333 -48.1500 71° East 560 644 43,000  Level Gander Center
06:43PM 46.2500 -47.9500 83° East 560 644 43,000  Level Gander Center
06:44PM 46.2833 -47.7333 77° East 550 633 43,000  Level Gander Center
06:45PM 46.3167 -47.4833 79° East 550 633 43,000  Level Gander Center
06:46PM 46.3333 -47.2833 83° East 550 633 43,000  Level Gander Center
06:47PM 46.3667 -47.0667 77° East 550 633 43,000  Level Gander Center
06:48PM 46.3833 -46.8500 84° East 560 644 43,000  Level Gander Center
06:50PM 46.4161 -46.5766 80° East  Level FlightAware Approximate
06:57PM 46.5702 -45.2048 80° East  Level FlightAware Approximate
06:58PM 46.5909 -45.0082 81° East  Level FlightAware Approximate
06:59PM 46.6112 -44.8115 81° East  Level FlightAware Approximate
07:00PM 46.6312 -44.6146 82° East  Level FlightAware Approximate
07:01PM 46.6509 -44.4175 82° East  Level FlightAware Approximate
07:02PM 46.6702 -44.2204 82° East  Level FlightAware Approximate
07:03PM 46.6892 -44.0231 82° East  Level FlightAware Approximate
07:04PM 46.7078 -43.8256 82° East  Level FlightAware Approximate
07:05PM 46.7261 -43.6280 82° East  Level FlightAware Approximate
07:06PM 46.7441 -43.4303 82° East  Level FlightAware Approximate
07:07PM 46.7617 -43.2324 83° East  Level FlightAware Approximate
07:08PM 46.7790 -43.0345 83° East  Level FlightAware Approximate
07:09PM 46.7959 -42.8364 83° East  Level FlightAware Approximate
07:10PM 46.8125 -42.6381 83° East  Level FlightAware Approximate
07:11PM 46.8288 -42.4398 83° East  Level FlightAware Approximate
07:12PM 46.8447 -42.2413 83° East  Level FlightAware Approximate
07:13PM 46.8602 -42.0427 83° East  Level FlightAware Approximate
07:14PM 46.8755 -41.8440 84° East  Level FlightAware Approximate
07:15PM 46.8903 -41.6452 84° East  Level FlightAware Approximate
07:16PM 46.9049 -41.4463 84° East  Level FlightAware Approximate
07:17PM 46.9191 -41.2473 84° East  Level FlightAware Approximate
07:18PM 46.9329 -41.0481 84° East  Level FlightAware Approximate
07:19PM 46.9464 -40.8489 84° East  Level FlightAware Approximate
07:20PM 46.9596 -40.6496 84° East  Level FlightAware Approximate
07:21PM 46.9724 -40.4502 85° East  Level FlightAware Approximate
07:22PM 46.9848 -40.2506 85° East  Level FlightAware Approximate
07:22PM 47.0000 -40.0000 86° East 511 588 43,000  Level ETMS Enhanced Traffic Management System
07:23PM 46.9970 -40.0510 85° East  Level FlightAware Approximate
07:24PM 47.0064 -39.8512 86° East  Level FlightAware Approximate
07:25PM 47.0147 -39.6511 86° East  Level FlightAware Approximate
07:26PM 47.0227 -39.4509 87° East  Level FlightAware Approximate
07:27PM 47.0303 -39.2506 87° East  Level FlightAware Approximate
07:28PM 47.0663 -38.1276 88° East 511 588 43,000  Level FlightAware Transoceanic
07:29PM 47.0718 -37.9193 88° East 511 588 43,000  Level FlightAware Transoceanic
07:30PM 47.0770 -37.7109 88° East 511 588 43,000  Level FlightAware Transoceanic
07:31PM 47.0817 -37.5026 88° East 511 588 43,000  Level FlightAware Transoceanic
07:32PM 47.0860 -37.2941 88° East 511 588 43,000  Level FlightAware Transoceanic
07:33PM 47.0900 -37.0857 88° East 511 588 43,000  Level FlightAware Transoceanic
07:34PM 47.0936 -36.8772 89° East 511 588 43,000  Level FlightAware Transoceanic
07:35PM 47.0968 -36.6687 89° East 511 588 43,000  Level FlightAware Transoceanic
07:36PM 47.0997 -36.4602 89° East 511 588 43,000  Level FlightAware Transoceanic
07:37PM 47.1021 -36.2516 89° East 511 588 43,000  Level FlightAware Transoceanic
07:38PM 47.1042 -36.0430 89° East 511 588 43,000  Level FlightAware Transoceanic
07:39PM 47.1059 -35.8344 89° East 511 588 43,000  Level FlightAware Transoceanic
07:40PM 47.1072 -35.6258 90° East 511 588 43,000  Level FlightAware Transoceanic
07:41PM 47.1082 -35.4172 90° East 511 588 43,000  Level FlightAware Transoceanic
07:42PM 47.1087 -35.2086 90° East 511 588 43,000  Level FlightAware Transoceanic
07:43PM 47.1089 -35.0000 90° East 511 588 43,000  Level FlightAware Transoceanic
07:44PM 47.1087 -34.7914 90° East 511 588 43,000  Level FlightAware Transoceanic
07:45PM 47.1082 -34.5828 90° East 511 588 43,000  Level FlightAware Transoceanic
07:46PM 47.1072 -34.3742 90° East 511 588 43,000  Level FlightAware Transoceanic
07:47PM 47.1059 -34.1656 91° East 511 588 43,000  Level FlightAware Transoceanic
07:48PM 47.1042 -33.9570 91° East 511 588 43,000  Level FlightAware Transoceanic
07:49PM 47.1021 -33.7484 91° East 511 588 43,000  Level FlightAware Transoceanic
07:50PM 47.0997 -33.5398 91° East 511 588 43,000  Level FlightAware Transoceanic
07:51PM 47.0968 -33.3313 91° East 511 588 43,000  Level FlightAware Transoceanic
07:52PM 47.0936 -33.1228 91° East 511 588 43,000  Level FlightAware Transoceanic
07:53PM 47.0900 -32.9143 92° East 511 588 43,000  Level FlightAware Transoceanic
07:54PM 47.0860 -32.7059 92° East 511 588 43,000  Level FlightAware Transoceanic
07:55PM 47.0817 -32.4974 92° East 511 588 43,000  Level FlightAware Transoceanic
07:56PM 47.0770 -32.2891 92° East 511 588 43,000  Level FlightAware Transoceanic
07:57PM 47.0718 -32.0807 92° East 511 588 43,000  Level FlightAware Transoceanic
07:58PM 47.0663 -31.8724 92° East 511 588 43,000  Level FlightAware Transoceanic
07:59PM 47.0605 -31.6641 92° East 511 588 43,000  Level FlightAware Transoceanic
08:00PM 47.0542 -31.4559 93° East 511 588 43,000  Level FlightAware Transoceanic
08:01PM 47.0476 -31.2478 93° East 511 588 43,000  Level FlightAware Transoceanic
08:02PM 47.0406 -31.0397 93° East 511 588 43,000  Level FlightAware Transoceanic
08:03PM 47.0333 -30.8316 93° East 511 588 43,000  Level FlightAware Transoceanic
08:04PM 47.0255 -30.6236 93° East 511 588 43,000  Level FlightAware Transoceanic
08:05PM 47.0174 -30.4157 93° East 511 588 43,000  Level FlightAware Transoceanic
08:06PM 47.0089 -30.2078 94° East 511 588 43,000  Level FlightAware Transoceanic
08:07PM 47.0003 -30.0077 94° East  Level FlightAware Approximate
08:08PM 46.9914 -29.8078 94° East  Level FlightAware Approximate
08:09PM 46.9897 -29.8157 95° East  Level FlightAware Approximate
08:10PM 46.9782 -29.6160 95° East  Level FlightAware Approximate
08:11PM 46.9664 -29.4165 95° East  Level FlightAware Approximate
08:11PM 47.0000 -30.0000 95° East 490 564 43,000  Level ETMS Enhanced Traffic Management System
08:12PM 46.9542 -29.2170 95° East  Level FlightAware Approximate
08:13PM 46.9417 -29.0176 95° East  Level FlightAware Approximate
08:14PM 46.9288 -28.8183 95° East  Level FlightAware Approximate
08:15PM 46.9156 -28.6191 95° East  Level FlightAware Approximate
08:16PM 46.9020 -28.4200 96° East  Level FlightAware Approximate
08:17PM 46.8874 -28.2109 96° East 490 564 43,000  Level FlightAware Transoceanic
08:18PM 46.8731 -28.0126 96° East 490 564 43,000  Level FlightAware Transoceanic
08:19PM 46.8586 -27.8144 96° East 490 564 43,000  Level FlightAware Transoceanic
08:20PM 46.8437 -27.6163 96° East 490 564 43,000  Level FlightAware Transoceanic
08:21PM 46.8284 -27.4183 96° East 490 564 43,000  Level FlightAware Transoceanic
08:22PM 46.8128 -27.2204 97° East 490 564 43,000  Level FlightAware Transoceanic
08:23PM 46.7969 -27.0227 97° East 490 564 43,000  Level FlightAware Transoceanic
08:24PM 46.7806 -26.8251 97° East 490 564 43,000  Level FlightAware Transoceanic
08:25PM 46.7640 -26.6275 97° East 490 564 43,000  Level FlightAware Transoceanic
08:26PM 46.7470 -26.4301 97° East 490 564 43,000  Level FlightAware Transoceanic
08:27PM 46.7297 -26.2329 97° East 490 564 43,000  Level FlightAware Transoceanic
08:28PM 46.7121 -26.0357 98° East 490 564 43,000  Level FlightAware Transoceanic
08:29PM 46.6941 -25.8388 98° East 490 564 43,000  Level FlightAware Transoceanic
08:30PM 46.6758 -25.6419 98° East 490 564 43,000  Level FlightAware Transoceanic
08:31PM 46.6572 -25.4451 98° East 490 564 43,000  Level FlightAware Transoceanic
08:32PM 46.6382 -25.2485 98° East 490 564 43,000  Level FlightAware Transoceanic
08:33PM 46.6188 -25.0521 98° East 490 564 43,000  Level FlightAware Transoceanic
08:34PM 46.5992 -24.8558 98° East 490 564 43,000  Level FlightAware Transoceanic
08:35PM 46.5792 -24.6596 99° East 490 564 43,000  Level FlightAware Transoceanic
08:36PM 46.5589 -24.4636 99° East 490 564 43,000  Level FlightAware Transoceanic
08:37PM 46.5382 -24.2677 99° East 490 564 43,000  Level FlightAware Transoceanic
08:38PM 46.5172 -24.0719 99° East 490 564 43,000  Level FlightAware Transoceanic
08:39PM 46.4959 -23.8764 99° East 490 564 43,000  Level FlightAware Transoceanic
08:40PM 46.4742 -23.6809 99° East 490 564 43,000  Level FlightAware Transoceanic
08:41PM 46.4522 -23.4857 99° East 490 564 43,000  Level FlightAware Transoceanic
08:42PM 46.4299 -23.2906 100° East 490 564 43,000  Level FlightAware Transoceanic
08:43PM 46.4072 -23.0956 100° East 490 564 43,000  Level FlightAware Transoceanic
08:44PM 46.3842 -22.9008 100° East 490 564 43,000  Level FlightAware Transoceanic
08:45PM 46.3609 -22.7062 100° East 490 564 43,000  Level FlightAware Transoceanic
08:46PM 46.3372 -22.5117 100° East 490 564 43,000  Level FlightAware Transoceanic
08:47PM 46.3133 -22.3175 100° East 490 564 43,000  Level FlightAware Transoceanic
08:48PM 46.2890 -22.1234 100° East 490 564 43,000  Level FlightAware Transoceanic
08:49PM 46.2643 -21.9294 100° East 490 564 43,000  Level FlightAware Transoceanic
08:50PM 46.2393 -21.7356 101° East 490 564 43,000  Level FlightAware Transoceanic
08:51PM 46.2141 -21.5421 101° East 490 564 43,000  Level FlightAware Transoceanic
08:52PM 46.1884 -21.3487 101° East 490 564 43,000  Level FlightAware Transoceanic
08:53PM 46.1625 -21.1554 101° East 490 564 43,000  Level FlightAware Transoceanic
08:54PM 46.1362 -20.9624 101° East 490 564 43,000  Level FlightAware Transoceanic
08:55PM 46.1096 -20.7695 101° East 490 564 43,000  Level FlightAware Transoceanic
08:56PM 46.0827 -20.5769 101° East 490 564 43,000  Level FlightAware Transoceanic
08:57PM 46.0555 -20.3844 102° East 490 564 43,000  Level FlightAware Transoceanic
08:58PM 46.0279 -20.1921 102° East 490 564 43,000  Level FlightAware Transoceanic
08:59PM 45.9999 -19.9994 102° East  Level FlightAware Approximate
09:00PM 45.9998 -19.9989 104° East  Level FlightAware Approximate
09:01PM 45.9654 -19.8085 104° East  Level FlightAware Approximate
09:02PM 45.9308 -19.6183 105° East  Level FlightAware Approximate
09:03PM 45.8958 -19.4284 105° East  Level FlightAware Approximate
09:04PM 45.8605 -19.2387 105° East  Level FlightAware Approximate
09:05PM 45.8249 -19.0492 105° East  Level FlightAware Approximate
09:06PM 45.7889 -18.8600 105° East  Level FlightAware Approximate
09:07PM 45.7527 -18.6710 105° East  Level FlightAware Approximate
09:08PM 45.7161 -18.4823 105° East  Level FlightAware Approximate
09:09PM 45.6793 -18.2939 106° East  Level FlightAware Approximate
09:10PM 45.6421 -18.1056 106° East  Level FlightAware Approximate
09:11PM 45.6046 -17.9177 106° East  Level FlightAware Approximate
09:12PM 45.5668 -17.7299 106° East  Level FlightAware Approximate
09:13PM 45.5288 -17.5425 106° East  Level FlightAware Approximate
09:14PM 45.4892 -17.3558 107° East  Level FlightAware Approximate
09:15PM 45.4488 -17.1696 107° East  Level FlightAware Approximate
09:16PM 45.4081 -16.9837 107° East  Level FlightAware Approximate
09:17PM 45.3671 -16.7980 107° East  Level FlightAware Approximate
09:18PM 45.3258 -16.6126 108° East  Level FlightAware Approximate
09:19PM 45.2842 -16.4274 108° East  Level FlightAware Approximate
09:20PM 45.2438 -16.2419 107° East  Level FlightAware Approximate
09:21PM 45.2041 -16.0562 107° East  Level FlightAware Approximate
09:22PM 45.1642 -15.8707 107° East  Level FlightAware Approximate
09:23PM 45.1239 -15.6855 107° East  Level FlightAware Approximate
09:24PM 45.0834 -15.5005 107° East  Level FlightAware Approximate
09:25PM 45.0426 -15.3158 107° East  Level FlightAware Approximate
09:26PM 45.0014 -15.1314 107° East  Level FlightAware Approximate
09:27PM 44.9600 -14.9472 108° East  Level FlightAware Approximate
09:28PM 44.9183 -14.7633 108° East  Level FlightAware Approximate
09:29PM 44.8763 -14.5797 108° East  Level FlightAware Approximate
09:30PM 44.8340 -14.3963 108° East  Level FlightAware Approximate
09:31PM 44.7914 -14.2132 108° East  Level FlightAware Approximate
09:32PM 44.7485 -14.0304 108° East  Level FlightAware Approximate
09:33PM 44.7053 -13.8478 108° East  Level FlightAware Approximate
09:34PM 44.6618 -13.6656 108° East  Level FlightAware Approximate
09:35PM 44.6180 -13.4836 109° East  Level FlightAware Approximate
09:36PM 44.5740 -13.3018 109° East  Level FlightAware Approximate
09:37PM 44.5296 -13.1204 109° East  Level FlightAware Approximate
09:38PM 44.4814 -12.9412 114° Southeast  Level FlightAware Approximate
09:39PM 44.4257 -12.7664 114° Southeast  Level FlightAware Approximate
09:40PM 44.3697 -12.5918 114° Southeast  Level FlightAware Approximate
09:41PM 44.3134 -12.4176 114° Southeast  Level FlightAware Approximate
09:42PM 44.2570 -12.2437 114° Southeast  Level FlightAware Approximate
09:43PM 44.2002 -12.0702 114° Southeast  Level FlightAware Approximate
09:44PM 44.1432 -11.8970 115° Southeast  Level FlightAware Approximate
09:45PM 44.0859 -11.7241 115° Southeast  Level FlightAware Approximate
09:46PM 44.0283 -11.5516 115° Southeast  Level FlightAware Approximate
09:47PM 43.9705 -11.3794 115° Southeast  Level FlightAware Approximate
09:48PM 43.9124 -11.2075 115° Southeast  Level FlightAware Approximate
09:49PM 43.8541 -11.0360 115° Southeast  Level FlightAware Approximate
09:50PM 43.7955 -10.8648 115° Southeast  Level FlightAware Approximate
09:51PM 43.7367 -10.6939 115° Southeast  Level FlightAware Approximate
09:52PM 43.6776 -10.5234 116° Southeast  Level FlightAware Approximate
09:53PM 43.6183 -10.3532 116° Southeast  Level FlightAware Approximate
09:54PM 43.5587 -10.1833 116° Southeast  Level FlightAware Approximate
09:55PM 43.4988 -10.0138 116° Southeast  Level FlightAware Approximate
09:56PM 43.4388 -9.8447 116° Southeast  Level FlightAware Approximate
09:57PM 43.3784 -9.6758 116° Southeast  Level FlightAware Approximate
09:58PM 43.3178 -9.5073 116° Southeast  Level FlightAware Approximate
09:59PM 43.2570 -9.3392 116° Southeast  Level FlightAware Approximate
10:00PM 43.1959 -9.1713 116° Southeast  Level FlightAware Approximate
10:01PM 43.1346 -9.0038 117° Southeast  Level FlightAware Approximate
10:02PM 43.0730 -8.8367 117° Southeast  Level FlightAware Approximate
10:03PM 43.0112 -8.6699 117° Southeast  Level FlightAware Approximate
10:04PM 42.9491 -8.5034 117° Southeast  Level FlightAware Approximate
10:05PM 42.8817 -8.3413 122° Southeast  Level FlightAware Approximate
10:06PM 42.8083 -8.1839 122° Southeast  Level FlightAware Approximate
10:07PM 42.7348 -8.0269 122° Southeast  Level FlightAware Approximate
10:08PM 42.6611 -7.8703 123° Southeast  Level FlightAware Approximate
10:09PM 42.5871 -7.7141 123° Southeast  Level FlightAware Approximate
10:10PM 42.5129 -7.5582 123° Southeast  Level FlightAware Approximate
10:11PM 42.4385 -7.4027 123° Southeast  Level FlightAware Approximate
10:12PM 42.3640 -7.2476 123° Southeast  Level FlightAware Approximate
10:13PM 42.2892 -7.0928 123° Southeast  Level FlightAware Approximate
10:14PM 42.2141 -6.9384 123° Southeast  Level FlightAware Approximate
10:15PM 42.1389 -6.7844 123° Southeast  Level FlightAware Approximate
10:16PM 42.0635 -6.6308 123° Southeast  Level FlightAware Approximate
10:17PM 41.9879 -6.4775 124° Southeast  Level FlightAware Approximate
10:18PM 41.9120 -6.3246 124° Southeast  Level FlightAware Approximate
10:19PM 41.8360 -6.1720 124° Southeast  Level FlightAware Approximate
10:20PM 41.7575 -6.0219 126° Southeast  Level FlightAware Approximate
10:21PM 41.6782 -5.8728 124° Southeast  Level FlightAware Approximate
10:22PM 41.6021 -5.7209 124° Southeast  Level FlightAware Approximate
10:23PM 41.5205 -5.5743 124° Southeast  Level FlightAware Approximate
10:24PM 41.4446 -5.4226 124° Southeast  Level FlightAware Approximate
10:25PM 41.3798 -5.2641 125° Southeast  Level FlightAware Approximate
10:26PM 41.3007 -5.1157 125° Southeast  Level FlightAware Approximate
10:27PM 41.2225 -4.9665 125° Southeast  Level FlightAware Approximate
10:28PM 41.1446 -4.8173 125° Southeast  Level FlightAware Approximate
10:29PM 41.0664 -4.6684 125° Southeast  Level FlightAware Approximate
10:30PM 40.9881 -4.5200 125° Southeast  Level FlightAware Approximate
10:31PM 40.9091 -4.3722 126° Southeast  Level FlightAware Approximate
10:32PM 40.8290 -4.2257 127° Southeast  Level FlightAware Approximate
10:33PM 40.7467 -4.0816 127° Southeast  Level FlightAware Approximate
10:34PM 40.6696 -3.9330 121° Southeast  Level FlightAware Approximate
10:35PM 40.5957 -3.7818 128° Southeast  Level FlightAware Approximate
10:36PM 40.5173 -3.6346 123° Southeast  Level FlightAware Approximate
10:37PM 40.4936 -3.5668 128° Southeast  Level Estimated
10:38PM 40.4936 -3.5668 128° Southeast  Level Estimated
10:39PM 40.4936 -3.5668 128° Southeast  Level Estimated
10:40PM 40.4936 -3.5668 128° Southeast  Level Estimated
10:41PM 40.4936 -3.5668 128° Southeast  Level Estimated
10:42PM 40.4936 -3.5668 128° Southeast  Level Estimated
10:43PM 40.4936 -3.5668 128° Southeast  Level Estimated
10:44PM 40.4936 -3.5668 128° Southeast  Level Estimated
10:45PM 40.4936 -3.5668 128° Southeast  Level Estimated
10:46PM 40.4936 -3.5668 128° Southeast  Level Estimated
10:47PM 40.4936 -3.5668 128° Southeast  Level Estimated
10:48PM 40.4936 -3.5668 128° Southeast  Level Estimated
10:49PM 40.4936 -3.5668 128° Southeast  Level Estimated
10:50PM 40.4936 -3.5668 128° Southeast  Level Estimated
10:51PM 40.4936 -3.5668 128° Southeast  Level Estimated
10:52PM 40.4936 -3.5668 128° Southeast  Level Estimated
10:53PM 40.4936 -3.5668 128° Southeast  Level Estimated
10:54PM 40.4936 -3.5668 128° Southeast  Level Estimated
10:55PM 40.4936 -3.5668 128° Southeast  Level Estimated
10:56PM 40.4936 -3.5668 128° Southeast  Level Estimated
10:57PM 40.4936 -3.5668 128° Southeast  Level Estimated
10:58PM 40.4936 -3.5668 128° Southeast  Level Estimated
10:59PM 40.4936 -3.5668 128° Southeast  Level Estimated
11:00PM 40.4936 -3.5668 128° Southeast  Level Estimated
11:01PM 40.4936 -3.5668 128° Southeast  Level Estimated